createdAt,value
2019-05-11T00:00:32.111Z,83.04
2019-05-11T00:03:38.516Z,82.75
2019-05-11T00:06:45.140Z,80.20
2019-05-11T00:09:57.997Z,79.92
2019-05-11T00:13:02.763Z,80.88
2019-05-11T00:16:09.054Z,82.41
2019-05-11T00:19:15.511Z,82.95
2019-05-11T00:22:21.885Z,82.58
2019-05-11T00:25:28.365Z,82.50
2019-05-11T00:28:35.010Z,83.22
2019-05-11T00:31:41.762Z,82.08
2019-05-11T00:34:48.065Z,82.78
2019-05-11T00:37:54.518Z,83.79
2019-05-11T00:41:00.814Z,83.87
2019-05-11T00:44:07.290Z,84.82
2019-05-11T00:47:13.740Z,85.30
2019-05-11T00:50:20.774Z,85.05
2019-05-11T00:53:27.423Z,85.30
2019-05-11T00:56:33.947Z,85.63
2019-05-11T00:59:40.242Z,86.02
2019-05-11T01:02:46.697Z,86.82
2019-05-11T01:05:53.054Z,86.07
2019-05-11T01:08:59.666Z,85.89
2019-05-11T01:12:06.035Z,85.95
2019-05-11T01:15:12.573Z,86.15
2019-05-11T01:18:18.983Z,85.53
2019-05-11T01:21:25.338Z,87.01
2019-05-11T01:24:31.636Z,87.08
2019-05-11T01:27:38.366Z,86.37
2019-05-11T01:30:45.083Z,86.74
2019-05-11T01:33:51.436Z,87.26
2019-05-11T01:36:57.740Z,87.23
2019-05-11T01:40:04.290Z,87.81
2019-05-11T01:43:10.636Z,87.17
2019-05-11T01:46:17.389Z,87.22
2019-05-11T01:49:23.758Z,87.40
2019-05-11T01:52:30.199Z,87.51
2019-05-11T01:55:36.764Z,88.30
2019-05-11T01:58:43.177Z,88.76
2019-05-11T02:01:49.647Z,88.70
2019-05-11T02:05:15.159Z,88.70
2019-05-11T02:08:21.526Z,88.27
2019-05-11T02:11:27.794Z,88.73
2019-05-11T02:14:34.163Z,88.73
2019-05-11T02:17:40.689Z,88.25
2019-05-11T02:20:47.203Z,88.55
2019-05-11T02:23:53.698Z,88.61
2019-05-11T02:26:59.975Z,89.35
2019-05-11T02:30:07.451Z,88.46
2019-05-11T02:33:14.035Z,89.02
2019-05-11T02:36:20.288Z,88.92
2019-05-11T02:39:26.758Z,87.93
2019-05-11T02:42:33.236Z,89.26
2019-05-11T02:45:41.320Z,89.26
2019-05-11T02:48:47.896Z,88.74
2019-05-11T02:51:54.156Z,88.98
2019-05-11T02:55:01.244Z,88.85
2019-05-11T02:58:08.149Z,88.94
2019-05-11T03:01:14.544Z,89.05
2019-05-11T03:04:20.876Z,89.69
2019-05-11T03:07:28.267Z,89.36
2019-05-11T03:10:34.602Z,89.17
2019-05-11T03:13:41.491Z,89.30
2019-05-11T03:16:51.017Z,89.19
2019-05-11T03:19:57.504Z,88.54
2019-05-11T03:23:04.930Z,87.38
2019-05-11T03:26:11.496Z,88.37
2019-05-11T03:29:17.926Z,89.14
2019-05-11T03:32:24.446Z,89.31
2019-05-11T03:35:31.007Z,87.89
2019-05-11T03:38:37.486Z,89.42
2019-05-11T03:41:43.868Z,89.97
2019-05-11T03:44:50.291Z,89.85
2019-05-11T03:47:56.744Z,89.04
2019-05-11T03:51:03.145Z,88.68
2019-05-11T03:54:09.516Z,89.42
2019-05-11T03:57:15.968Z,89.65
2019-05-11T04:00:22.596Z,89.86
2019-05-11T04:03:28.935Z,89.83
2019-05-11T04:06:35.395Z,89.76
2019-05-11T04:09:41.857Z,89.22
2019-05-11T04:12:48.115Z,89.78
2019-05-11T04:15:54.525Z,90.40
2019-05-11T04:19:00.919Z,90.57
2019-05-11T04:22:07.211Z,90.13
2019-05-11T04:25:13.553Z,89.83
2019-05-11T04:28:19.943Z,90.25
2019-05-11T04:31:26.292Z,90.13
2019-05-11T04:34:32.884Z,89.94
2019-05-11T04:37:40.043Z,90.21
2019-05-11T04:40:46.534Z,89.89
2019-05-11T04:43:52.885Z,89.24
2019-05-11T04:46:59.747Z,89.75
2019-05-11T04:50:06.552Z,90.08
2019-05-11T04:53:13.075Z,89.95
2019-05-11T04:56:19.474Z,89.19
2019-05-11T04:59:25.951Z,89.65
2019-05-11T05:02:32.551Z,89.81
2019-05-11T05:05:38.842Z,88.51
2019-05-11T05:08:47.251Z,88.64
2019-05-11T05:11:54.003Z,88.61
2019-05-11T05:15:00.329Z,88.42
2019-05-11T05:18:06.801Z,87.05
2019-05-11T05:21:13.145Z,87.85
2019-05-11T05:24:19.617Z,87.81
2019-05-11T05:27:25.888Z,86.10
2019-05-11T05:30:32.473Z,86.08
2019-05-11T05:33:38.863Z,85.89
2019-05-11T05:36:48.323Z,86.48
2019-05-11T05:39:56.000Z,86.36
2019-05-11T05:43:02.339Z,85.32
2019-05-11T05:46:08.847Z,85.90
2019-05-11T05:49:15.379Z,86.06
2019-05-11T05:52:21.758Z,85.27
2019-05-11T05:55:28.218Z,85.08
2019-05-11T05:58:34.677Z,85.57
2019-05-11T06:01:41.202Z,85.42
2019-05-11T06:04:47.998Z,85.04
2019-05-11T06:07:57.707Z,84.48
2019-05-11T06:11:04.116Z,83.94
2019-05-11T06:14:11.223Z,84.68
2019-05-11T06:17:17.653Z,83.34
2019-05-11T06:20:24.024Z,83.04
2019-05-11T06:23:30.397Z,82.33
2019-05-11T06:26:37.112Z,82.41
2019-05-11T06:29:43.474Z,82.05
2019-05-11T06:32:49.920Z,81.66
2019-05-11T06:35:56.410Z,81.52
2019-05-11T06:39:04.210Z,80.94
2019-05-11T06:42:12.229Z,81.11
2019-05-11T06:45:20.416Z,81.30
2019-05-11T06:48:26.812Z,81.44
2019-05-11T06:51:33.260Z,81.06
2019-05-11T06:54:39.575Z,80.85
2019-05-11T06:57:46.071Z,80.42
2019-05-11T07:00:52.326Z,80.86
2019-05-11T07:03:59.122Z,80.38
2019-05-11T07:07:05.670Z,80.14
2019-05-11T07:10:12.156Z,79.83
2019-05-11T07:13:18.493Z,79.88
2019-05-11T07:16:24.806Z,79.25
2019-05-11T07:19:31.085Z,79.04
2019-05-11T07:22:37.765Z,78.71
2019-05-11T07:25:44.223Z,78.27
2019-05-11T07:28:51.879Z,77.91
2019-05-11T07:32:05.567Z,77.76
2019-05-11T07:35:08.438Z,77.32
2019-05-11T07:38:14.271Z,76.65
2019-05-11T07:41:20.956Z,76.53
2019-05-11T07:44:35.879Z,75.89
2019-05-11T07:47:37.900Z,75.57
2019-05-11T07:50:43.862Z,74.84
2019-05-11T07:53:50.375Z,73.35
2019-05-11T07:56:58.394Z,72.94
2019-05-11T08:00:05.282Z,71.83
2019-05-11T08:03:12.584Z,70.43
2019-05-11T08:06:18.992Z,69.59
2019-05-11T08:09:27.630Z,69.70
2019-05-11T08:12:33.471Z,66.37
2019-05-11T08:15:39.799Z,65.11
2019-05-11T08:18:48.123Z,63.75
2019-05-11T08:21:54.433Z,64.69
2019-05-11T08:25:00.773Z,63.19
2019-05-11T08:28:11.796Z,63.78
2019-05-11T08:31:15.192Z,64.32
2019-05-11T08:34:21.552Z,61.90
2019-05-11T08:37:28.502Z,59.22
2019-05-11T08:40:34.896Z,58.73
2019-05-11T08:43:41.354Z,58.21
2019-05-11T08:46:48.199Z,58.99
2019-05-11T08:49:54.526Z,58.62
2019-05-11T08:53:01.000Z,58.89
2019-05-11T08:56:11.085Z,58.26
2019-05-11T08:59:15.711Z,58.80
2019-05-11T09:02:22.195Z,56.03
2019-05-11T09:05:28.762Z,55.16
2019-05-11T09:08:35.380Z,57.37
2019-05-11T09:11:41.841Z,54.87
2019-05-11T09:14:48.578Z,55.64
2019-05-11T09:17:55.083Z,57.13
2019-05-11T09:21:01.764Z,56.33
2019-05-11T09:24:08.628Z,56.17
2019-05-11T09:27:15.098Z,57.10
2019-05-11T09:30:21.525Z,56.59
2019-05-11T09:33:28.396Z,56.87
2019-05-11T09:36:34.980Z,56.71
2019-05-11T09:39:41.474Z,57.27
2019-05-11T09:42:48.059Z,58.69
2019-05-11T09:45:54.796Z,58.17
2019-05-11T09:49:01.418Z,56.26
2019-05-11T09:52:08.057Z,55.01
2019-05-11T09:55:14.447Z,57.21
2019-05-11T09:58:21.142Z,56.85
2019-05-11T10:01:29.614Z,55.51
2019-05-11T10:04:37.914Z,55.59
2019-05-11T10:07:44.050Z,52.67
2019-05-11T10:10:50.587Z,53.18
2019-05-11T10:13:57.784Z,52.42
2019-05-11T10:17:04.452Z,52.50
2019-05-11T10:20:11.287Z,52.54
2019-05-11T10:23:18.698Z,53.92
2019-05-11T10:26:25.199Z,53.11
2019-05-11T10:29:33.896Z,53.82
2019-05-11T10:32:40.919Z,54.34
2019-05-11T10:35:48.349Z,55.28
2019-05-11T10:38:54.968Z,55.28
2019-05-11T10:42:01.721Z,55.80
2019-05-11T10:45:09.201Z,55.15
2019-05-11T10:48:17.739Z,54.02
2019-05-11T10:51:24.391Z,54.92
2019-05-11T10:54:30.897Z,54.43
2019-05-11T10:57:38.629Z,54.86
2019-05-11T11:00:47.930Z,54.98
2019-05-11T11:03:53.711Z,53.35
2019-05-11T11:07:00.269Z,52.34
2019-05-11T11:10:08.907Z,52.67
2019-05-11T11:13:15.300Z,52.63
2019-05-11T11:16:35.798Z,53.16
2019-05-11T11:19:30.320Z,54.18
2019-05-11T11:22:41.313Z,53.60
2019-05-11T11:25:45.001Z,53.12
2019-05-11T11:28:51.770Z,54.05
2019-05-11T11:31:58.814Z,53.69
2019-05-11T11:35:05.472Z,55.08
2019-05-11T11:38:11.986Z,54.69
2019-05-11T11:41:18.880Z,55.27
2019-05-11T11:44:25.371Z,54.82
2019-05-11T11:47:31.723Z,55.03
2019-05-11T11:50:38.251Z,54.76
2019-05-11T11:53:44.729Z,55.20
2019-05-11T11:56:51.260Z,54.68
2019-05-11T11:59:58.705Z,53.85
2019-05-11T12:03:07.859Z,54.99
2019-05-11T12:06:13.780Z,54.99
2019-05-11T12:09:20.359Z,54.43
2019-05-11T12:12:27.881Z,54.64
2019-05-11T12:15:35.662Z,55.45
2019-05-11T12:18:42.306Z,53.73
2019-05-11T12:21:49.693Z,54.52
2019-05-11T12:24:58.751Z,54.06
2019-05-11T12:28:04.507Z,53.13
2019-05-11T12:31:10.880Z,53.20
2019-05-11T12:34:17.879Z,53.93
2019-05-11T12:37:24.502Z,53.45
2019-05-11T12:40:30.941Z,53.55
2019-05-11T12:43:38.233Z,54.40
2019-05-11T12:46:44.746Z,54.06
2019-05-11T12:49:51.088Z,53.53
2019-05-11T12:52:58.835Z,54.24
2019-05-11T12:56:07.970Z,53.81
2019-05-11T12:59:13.683Z,54.17
2019-05-11T13:02:20.346Z,54.13
2019-05-11T13:05:28.510Z,54.99
2019-05-11T13:08:35.177Z,54.99
2019-05-11T13:11:41.530Z,55.85
2019-05-11T13:14:48.868Z,56.07
2019-05-11T13:17:57.945Z,56.75
2019-05-11T13:21:03.832Z,57.26
2019-05-11T13:24:10.216Z,57.55
2019-05-11T13:27:17.851Z,58.21
2019-05-11T13:30:24.625Z,58.24
2019-05-11T13:33:31.008Z,61.71
2019-05-11T13:36:38.201Z,63.68
2019-05-11T13:39:44.732Z,66.49
2019-05-11T13:42:51.369Z,66.87
2019-05-11T13:45:58.438Z,72.53
2019-05-11T13:49:08.387Z,72.53
2019-05-11T13:52:14.179Z,71.44
2019-05-11T13:55:20.656Z,72.04
2019-05-11T13:58:27.772Z,70.24
2019-05-11T14:01:34.339Z,72.39
2019-05-11T14:04:40.796Z,72.48
2019-05-11T14:07:48.271Z,71.70
2019-05-11T14:10:57.952Z,71.10
2019-05-11T14:14:04.246Z,69.95
2019-05-11T14:17:10.688Z,71.92
2019-05-11T14:20:18.940Z,71.92
2019-05-11T14:23:28.357Z,71.86
2019-05-11T14:26:33.810Z,73.29
2019-05-11T14:29:40.095Z,71.87
2019-05-11T14:32:47.810Z,70.18
2019-05-11T14:35:54.436Z,69.54
2019-05-11T14:39:00.757Z,68.68
2019-05-11T14:42:07.685Z,68.92
2019-05-11T14:45:14.352Z,68.95
2019-05-11T14:48:26.253Z,69.52
2019-05-11T14:51:28.816Z,69.52
2019-05-11T14:54:35.223Z,68.36
2019-05-11T14:57:41.782Z,68.59
2019-05-11T15:00:49.561Z,68.65
2019-05-11T15:03:58.723Z,65.21
2019-05-11T15:07:04.487Z,65.17
2019-05-11T15:10:11.213Z,65.94
2019-05-11T15:13:18.563Z,66.61
2019-05-11T15:16:25.143Z,68.83
2019-05-11T15:19:31.566Z,68.34
2019-05-11T15:22:38.519Z,68.18
2019-05-11T15:25:45.207Z,68.83
2019-05-11T15:28:51.572Z,68.90
2019-05-11T15:31:58.066Z,68.53
2019-05-11T15:35:04.458Z,70.57
2019-05-11T15:38:11.091Z,69.09
2019-05-11T15:41:17.884Z,68.83
2019-05-11T15:44:24.290Z,69.24
2019-05-11T15:47:31.630Z,70.28
2019-05-11T15:50:40.209Z,73.29
2019-05-11T15:53:47.613Z,75.10
2019-05-11T15:56:55.034Z,76.28
2019-05-11T16:00:01.460Z,76.62
2019-05-11T16:03:08.287Z,78.87
2019-05-11T16:06:14.784Z,78.48
2019-05-11T16:09:21.115Z,78.48
2019-05-11T16:12:28.775Z,81.06
2019-05-11T16:15:38.207Z,82.63
2019-05-11T16:18:44.259Z,81.40
2019-05-11T16:21:50.629Z,80.54
2019-05-11T16:24:58.031Z,82.87
2019-05-11T16:28:04.852Z,83.88
2019-05-11T16:31:11.206Z,84.20
2019-05-11T16:34:18.427Z,83.64
2019-05-11T16:37:24.899Z,83.64
2019-05-11T16:40:31.214Z,83.16
2019-05-11T16:43:38.504Z,82.51
2019-05-11T16:46:45.190Z,82.94
2019-05-11T16:49:53.436Z,81.75
2019-05-11T16:53:00.272Z,80.89
2019-05-11T16:56:08.387Z,81.98
2019-05-11T16:59:14.986Z,81.18
2019-05-11T17:02:21.313Z,78.89
2019-05-11T17:05:33.477Z,81.15
2019-05-11T17:08:38.152Z,80.10
2019-05-11T17:11:44.553Z,80.82
2019-05-11T17:15:01.026Z,84.92
2019-05-11T17:18:08.085Z,83.23
2019-05-11T17:21:14.535Z,80.47
2019-05-11T17:24:20.887Z,78.16
2019-05-11T17:27:28.538Z,79.86
2019-05-11T17:30:38.673Z,82.58
2019-05-11T17:33:47.653Z,79.20
2019-05-11T17:36:57.090Z,79.94
2019-05-11T17:40:02.497Z,80.64
2019-05-11T17:43:09.217Z,82.12
2019-05-11T17:46:18.246Z,81.32
2019-05-11T17:49:23.864Z,82.02
2019-05-11T17:52:30.502Z,80.44
2019-05-11T17:55:38.289Z,81.79
2019-05-11T17:58:44.962Z,79.39
2019-05-11T18:01:51.303Z,79.64
2019-05-11T18:04:58.460Z,78.39
2019-05-11T18:08:05.026Z,81.42
2019-05-11T18:11:11.407Z,82.10
2019-05-11T18:14:17.785Z,80.83
2019-05-11T18:17:25.234Z,82.02
2019-05-11T18:20:31.575Z,81.63
2019-05-11T18:23:38.751Z,80.74
2019-05-11T18:26:45.280Z,81.15
2019-05-11T18:29:52.187Z,80.53
2019-05-11T18:32:59.502Z,80.50
2019-05-11T18:36:08.047Z,78.30
2019-05-11T18:39:14.240Z,82.43
2019-05-11T18:42:20.707Z,82.43
2019-05-11T18:45:28.783Z,82.63
2019-05-11T18:48:35.278Z,87.07
2019-05-11T18:51:41.653Z,84.89
2019-05-11T18:54:48.210Z,84.71
2019-05-11T18:57:54.583Z,82.21
2019-05-11T19:01:01.178Z,80.21
2019-05-11T19:04:08.909Z,78.69
2019-05-11T19:07:17.195Z,79.77
2019-05-11T19:10:23.932Z,78.18
2019-05-11T19:13:30.292Z,76.64
2019-05-11T19:16:38.781Z,76.11
2019-05-11T19:19:44.865Z,79.56
2019-05-11T19:22:51.772Z,79.56
2019-05-11T19:25:58.960Z,80.72
2019-05-11T19:29:05.297Z,80.17
2019-05-11T19:32:11.677Z,79.05
2019-05-11T19:35:21.291Z,78.52
2019-05-11T19:38:28.003Z,77.89
2019-05-11T19:41:34.773Z,79.45
2019-05-11T19:44:41.270Z,79.48
2019-05-11T19:47:48.416Z,80.59
2019-05-11T19:51:06.701Z,80.17
2019-05-11T19:54:03.816Z,81.59
2019-05-11T19:57:10.315Z,79.48
2019-05-11T20:00:18.592Z,78.58
2019-05-11T20:03:25.125Z,78.77
2019-05-11T20:06:31.506Z,79.58
2019-05-11T20:09:38.705Z,78.39
2019-05-11T20:12:48.358Z,77.78
2019-05-11T20:15:54.377Z,76.64
2019-05-11T20:19:01.003Z,80.09
2019-05-11T20:22:07.500Z,80.02
2019-05-11T20:25:18.585Z,81.73
2019-05-11T20:28:25.142Z,80.75
2019-05-11T20:31:31.516Z,80.15
2019-05-11T20:34:38.233Z,81.08
2019-05-11T20:37:44.739Z,80.96
2019-05-11T20:40:51.127Z,78.88
2019-05-11T20:43:58.072Z,81.30
2019-05-11T20:47:04.864Z,80.41
2019-05-11T20:50:11.332Z,81.46
2019-05-11T20:53:18.220Z,80.87
2019-05-11T20:56:24.826Z,79.54
2019-05-11T20:59:31.304Z,78.82
2019-05-11T21:02:38.220Z,79.56
2019-05-11T21:05:44.794Z,78.92
2019-05-11T21:08:51.195Z,79.10
2019-05-11T21:11:59.191Z,78.32
2019-05-11T21:15:07.725Z,77.50
2019-05-11T21:18:14.135Z,79.42
2019-05-11T21:21:20.463Z,76.06
2019-05-11T21:24:28.078Z,76.42
2019-05-11T21:27:34.495Z,75.79
2019-05-11T21:30:40.878Z,76.30
2019-05-11T21:33:47.291Z,75.63
2019-05-11T21:36:53.768Z,72.23
2019-05-11T21:40:00.241Z,74.15
2019-05-11T21:43:08.951Z,73.81
2019-05-11T21:46:17.864Z,71.88
2019-05-11T21:49:24.409Z,71.81
2019-05-11T21:52:30.739Z,70.71
2019-05-11T21:55:37.792Z,71.90
2019-05-11T21:58:44.307Z,70.98
2019-05-11T22:01:51.011Z,67.64
2019-05-11T22:04:58.628Z,68.28
2019-05-11T22:08:05.137Z,64.50
2019-05-11T22:11:13.995Z,65.39
2019-05-11T22:14:19.827Z,64.61
2019-05-11T22:17:27.916Z,63.34
2019-05-11T22:20:34.593Z,62.62
2019-05-11T22:23:40.953Z,63.41
2019-05-11T22:26:47.708Z,62.10
2019-05-11T22:29:54.044Z,62.10
2019-05-11T22:33:00.313Z,61.25
2019-05-11T22:36:06.790Z,60.59
2019-05-11T22:39:13.338Z,61.29
2019-05-11T22:42:19.902Z,61.26
2019-05-11T22:45:27.786Z,60.90
2019-05-11T22:48:34.288Z,59.38
2019-05-11T22:51:40.659Z,60.11
2019-05-11T22:54:48.484Z,60.31
2019-05-11T22:57:54.781Z,60.56
2019-05-11T23:01:01.031Z,59.71
2019-05-11T23:04:07.755Z,59.38
2019-05-11T23:07:14.221Z,59.38
2019-05-11T23:10:20.567Z,60.19
2019-05-11T23:13:27.905Z,59.57
2019-05-11T23:16:34.527Z,59.45
2019-05-11T23:19:41.608Z,59.17
2019-05-11T23:22:56.868Z,59.44
2019-05-11T23:25:57.953Z,59.44
2019-05-11T23:29:08.035Z,59.38
2019-05-11T23:32:13.857Z,59.75
2019-05-11T23:35:20.458Z,60.18
2019-05-11T23:38:28.197Z,59.55
2019-05-11T23:41:34.918Z,60.40
2019-05-11T23:44:41.479Z,61.00
2019-05-11T23:47:48.913Z,60.62
2019-05-11T23:50:57.906Z,60.10
2019-05-11T23:54:03.776Z,60.12
2019-05-11T23:57:10.048Z,60.47
